Denver City, Texas
Current Conditions -  °F | °C
As of 5:35 PM on Monday 22 Dec 2014 (Local Time) from KGNC Reporting Station
Clear Clear  
Wind Chill: 54°   Ceiling: Unl
Heat Index: 54°   Visibility: 10mi
Dew Point: 32°   Wind: 7mph
Humidity: 43%   Direction: 80°E
Pressure: 29.65"   Gusts: NA
Location:  32.96°N, 102.82°W
Report Text: KGNC 222335Z AUTO 08006KT 10SM CLR 12/00 A2965 RMK AO2 T01220000
Loading
Personal Weather Stations






























Interactive Weather Map New forecast layout! Learn more

10-Day Weather Forecast

Advertisements
Track Severe Weather on mobile